WetterOnline ( https://www.wetteronline.de )

Wetter aktuell Neuberend

Aktuelles Wetter: Schleswig (48m)

6-stündlich | Neueste Meldungen
Ortszeit Temperatur Wetter
Sa, 19.06. 8:00 22.5° C fast wolkenlos
Sa, 19.06. 2:00 20.4° C bewölkt
Fr, 18.06. 20:00 25.3° C wolkig
Fr, 18.06. 14:00 26.7° C wolkenlos
Fr, 18.06. 8:00 20.6° C wolkenlos
Fr, 18.06. 2:00 19.5° C leicht bewölkt
Do, 17.06. 20:00 28.9° C wolkenlos
Do, 17.06. 14:00 30.8° C fast wolkenlos
Ortszeit Temperatur Wetter
Sa, 19.06. 12:00 23.9° C wolkig
Sa, 19.06. 11:50 23.9° C wolkig
Sa, 19.06. 11:40 24.6° C leicht bewölkt
Sa, 19.06. 11:30 25.5° C wolkig
Sa, 19.06. 11:20 25.5° C wolkig
Sa, 19.06. 11:10 24.2° C wolkig
Sa, 19.06. 11:00 26.1° C wolkig
Sa, 19.06. 10:30 26.8° C leicht bewölkt
Sa, 19.06. 10:00 26.0° C fast wolkenlos
Sa, 19.06. 9:30 25.6° C fast wolkenlos
Sa, 19.06. 9:00 24.7° C wolkenlos
Ortszeit Relative Feuchte Sichtweite
Sa, 19.06. 8:00 80% 16 km
Sa, 19.06. 2:00 85% 20 km
Fr, 18.06. 20:00 60% 50 km
Fr, 18.06. 14:00 54% 45 km
Fr, 18.06. 8:00 78% 8 km
Fr, 18.06. 2:00 80% 27 km
Do, 17.06. 20:00 55% 35 km
Do, 17.06. 14:00 43% 40 km
Ortszeit Relative Feuchte Sichtweite
Sa, 19.06. 12:00 69% 27 km
Sa, 19.06. 11:50 69% -
Sa, 19.06. 11:40 67% -
Sa, 19.06. 11:30 64% 29 km
Sa, 19.06. 11:20 64% -
Sa, 19.06. 11:10 66% -
Sa, 19.06. 11:00 61% 55 km
Sa, 19.06. 10:30 59% 50 km
Sa, 19.06. 10:00 63% 50 km
Sa, 19.06. 9:30 66% 30 km
Sa, 19.06. 9:00 71% 20 km
Ortszeit Niederschlagsmenge Niederschlagsart
Sa, 19.06. 8:00 0.0 l/m2 in 12 Std. -
Sa, 19.06. 2:00 0.0 l/m2 in 6 Std. -
Fr, 18.06. 20:00 0.0 l/m2 in 12 Std. -
Fr, 18.06. 14:00 0.0 l/m2 in 6 Std. -
Fr, 18.06. 8:00 0.0 l/m2 in 12 Std. -
Fr, 18.06. 2:00 0.0 l/m2 in 6 Std. -
Do, 17.06. 20:00 0.0 l/m2 in 12 Std. -
Do, 17.06. 14:00 0.0 l/m2 in 6 Std. -
Ortszeit Niederschlagsmenge Niederschlagsart
Sa, 19.06. 12:00 0.0 l/m2 in 1 Std. -
Sa, 19.06. 11:50 keine Meldung -
Sa, 19.06. 11:40 keine Meldung -
Sa, 19.06. 11:30 0.0 l/m2 in 1 Std. -
Sa, 19.06. 11:20 keine Meldung -
Sa, 19.06. 11:10 keine Meldung -
Sa, 19.06. 11:00 0.0 l/m2 in 1 Std. -
Sa, 19.06. 10:30 0.0 l/m2 in 1 Std. -
Sa, 19.06. 10:00 0.0 l/m2 in 1 Std. -
Sa, 19.06. 9:30 0.0 l/m2 in 1 Std. -
Sa, 19.06. 9:00 0.0 l/m2 in 1 Std. -
Ortszeit Stärke Spitze Richtung
km/h Bft. km/h Grad Sektor
Sa, 19.06. 8:00 7 2 14 210° SW
Sa, 19.06. 2:00 7 2 44 270° W
Fr, 18.06. 20:00 11 2 29 60° NO
Fr, 18.06. 14:00 14 3 36 30° NO
Fr, 18.06. 8:00 6 1 13 340° N
Fr, 18.06. 2:00 4 1 29 220° SW
Do, 17.06. 20:00 7 2 32 90° O
Do, 17.06. 14:00 14 3 29 110° O
Ortszeit Stärke Spitze Richtung
km/h Bft. km/h Grad Sektor
Sa, 19.06. 12:00 18 3 40 230° SW
Sa, 19.06. 11:50 18 3 - 230° SW
Sa, 19.06. 11:40 18 3 - 230° SW
Sa, 19.06. 11:30 18 3 40 240° SW
Sa, 19.06. 11:20 18 3 - 240° SW
Sa, 19.06. 11:10 19 3 - 240° SW
Sa, 19.06. 11:00 17 3 35 230° SW
Sa, 19.06. 10:30 17 3 31 250° W
Sa, 19.06. 10:00 14 3 32 240° SW
Sa, 19.06. 9:30 15 3 31 240° SW
Sa, 19.06. 9:00 13 3 28 230° SW
Ortszeit Untergrenze Bedeckung Gattung
total tief tief mittel hoch
Sa, 19.06. 8:00 9000 m 2/8 0/8 - - -
Sa, 19.06. 2:00 3000 m 7/8 7/8 - - -
Fr, 18.06. 20:00 8100 m 8/8 0/8 - - -
Fr, 18.06. 14:00 - 0/8 0/8 - - -
Fr, 18.06. 8:00 - 0/8 0/8 - - -
Fr, 18.06. 2:00 10500 m 3/8 0/8 - - -
Do, 17.06. 20:00 - 0/8 0/8 - - -
Do, 17.06. 14:00 1800 m 0/8 0/8 - - -
Ortszeit Bedeckungsgrad in Achtel und Wolkenuntergrenze
Sa, 19.06. 12:00 3(630m) 4(1050m) 5(1350m)
Sa, 19.06. 11:50 3(630m) 4(1050m) 5(1350m)
Sa, 19.06. 11:40 4(600m)
Sa, 19.06. 11:30 4(600m) 5(750m)
Sa, 19.06. 11:20 4(600m) 5(750m)
Sa, 19.06. 11:10 4(720m) 5(900m)
Sa, 19.06. 11:00 5(780m) 5(930m)
Sa, 19.06. 10:30 4(780m)
Sa, 19.06. 10:00 1(8700m)
Sa, 19.06. 9:30 2(8700m)
Sa, 19.06. 9:00 keine Wolken
Ortszeit Luftdruck NN (hPa) Tendenz (hPa in 3 Std.)
Sa, 19.06. 8:00 1011 + 0,5
Sa, 19.06. 2:00 1012 + 0,1
Fr, 18.06. 20:00 1012 - 1,1
Fr, 18.06. 14:00 1014 - 0,7
Fr, 18.06. 8:00 1014 + 1,0
Fr, 18.06. 2:00 1014 + 1,1
Do, 17.06. 20:00 1011 - 0,5
Do, 17.06. 14:00 1012 - 1,1
Ortszeit Luftdruck NN (hPa) Tendenz (hPa in 3 Std.)
Sa, 19.06. 12:00 1013 + 1,5
Sa, 19.06. 11:50 1013 keine Meldung
Sa, 19.06. 11:40 1013 keine Meldung
Sa, 19.06. 11:30 1013 + 1,4
Sa, 19.06. 11:20 1013 keine Meldung
Sa, 19.06. 11:10 1013 keine Meldung
Sa, 19.06. 11:00 1012 + 1,3
Sa, 19.06. 10:30 1012 + 1,0
Sa, 19.06. 10:00 1012 + 0,8
Sa, 19.06. 9:30 1012 + 0,8
Sa, 19.06. 9:00 1011 + 1,0
Ortszeit Schneehöhe (cm)
Sa, 19.06. 8:00 -
Sa, 19.06. 2:00 -
Fr, 18.06. 20:00 -
Fr, 18.06. 14:00 -
Fr, 18.06. 8:00 -
Fr, 18.06. 2:00 -
Do, 17.06. 20:00 -
Do, 17.06. 14:00 -
Ortszeit Schneehöhe (cm)
Sa, 19.06. 12:00 -
Sa, 19.06. 11:50 -
Sa, 19.06. 11:40 -
Sa, 19.06. 11:30 -
Sa, 19.06. 11:20 -
Sa, 19.06. 11:10 -
Sa, 19.06. 11:00 -
Sa, 19.06. 10:30 -
Sa, 19.06. 10:00 -
Sa, 19.06. 9:30 -
Sa, 19.06. 9:00 -
Link zu dieser Seite / Seite empfehlen

Das Wetter in ...